Time;durP1;ratioP1;P1;durP2;ratioP2;P2;SDS_P1;SDS_P2;PMS_P1;PMS_P2;Temp;Humidity;BMP_temperature;BMP_pressure;BME280_temperature;BME280_humidity;BME280_pressure;Samples;Min_cycle;Max_cycle;Signal;HPM_P1;HPM_P2
2022/06/07 00:00:41;;;;;;;12.48;4.93;;;20.50;99.90;;;;;;4877949;29;20056;-80
2022/06/07 00:03:32;;;;;;;32.30;14.55;;;20.60;99.90;;;;;;4878055;29;20052;-79
2022/06/07 00:06:18;;;;;;;57.38;33.90;;;20.30;99.90;;;;;;4882610;29;20060;-78
2022/06/07 00:09:04;;;;;;;19.05;10.02;;;20.20;99.90;;;;;;4877968;29;20047;-78
2022/06/07 00:11:50;;;;;;;15.60;6.65;;;19.90;99.90;;;;;;4877957;29;20060;-80
2022/06/07 00:14:36;;;;;;;13.93;5.72;;;20.00;99.90;;;;;;4877668;29;20057;-77
2022/06/07 00:17:23;;;;;;;11.65;5.28;;;20.00;99.90;;;;;;4865761;29;20470;-75
2022/06/07 00:20:09;;;;;;;15.35;6.20;;;19.90;99.90;;;;;;4859325;29;20064;-80
2022/06/07 00:22:56;;;;;;;13.82;5.85;;;19.80;99.90;;;;;;4858865;29;20060;-78
2022/06/07 00:25:44;;;;;;;15.23;6.10;;;19.80;99.90;;;;;;4859299;29;20053;-81
2022/06/07 00:28:30;;;;;;;15.73;7.00;;;19.70;99.90;;;;;;4860814;29;20548;-78
2022/06/07 00:31:18;;;;;;;11.68;5.20;;;19.80;99.90;;;;;;4876944;29;20169;-78
2022/06/07 00:34:05;;;;;;;11.63;5.25;;;19.70;99.90;;;;;;4877285;29;20064;-78
2022/06/07 00:36:51;;;;;;;11.30;5.38;;;19.70;99.90;;;;;;4877452;29;20059;-80
2022/06/07 00:39:37;;;;;;;11.32;4.65;;;19.70;99.90;;;;;;4877640;29;20077;-80
2022/06/07 00:42:23;;;;;;;13.48;5.10;;;19.60;99.90;;;;;;4877779;29;20051;-80
2022/06/07 00:45:17;;;;;;;8.23;4.43;;;19.40;99.90;;;;;;4877412;29;20056;-78
2022/06/07 00:48:06;;;;;;;10.77;4.00;;;19.40;99.90;;;;;;4876944;29;20189;-78
2022/06/07 00:50:57;;;;;;;7.82;3.88;;;19.30;99.90;;;;;;4877867;29;20052;-80
2022/06/07 00:53:42;;;;;;;;;;;19.30;99.90;;;;;;4878035;29;20082;-78
2022/06/07 00:56:28;;;;;;;13.85;3.75;;;19.40;99.90;;;;;;4877407;29;19930;-79
2022/06/07 00:59:15;;;;;;;9.10;3.42;;;19.20;99.90;;;;;;4877601;29;20052;-79
2022/06/07 01:02:01;;;;;;;7.68;3.38;;;19.20;99.90;;;;;;4877539;29;20053;-81
2022/06/07 01:04:47;;;;;;;10.88;3.63;;;19.10;99.90;;;;;;4877296;29;20056;-80
2022/06/07 01:10:44;;;;;;;10.10;3.90;;;19.20;99.90;;;;;;4881027;29;20063;-80
2022/06/07 01:13:32;;;;;;;6.72;3.63;;;19.20;99.90;;;;;;4880475;29;20048;-81
2022/06/07 01:16:18;;;;;;;7.47;3.95;;;19.10;99.90;;;;;;4880530;29;20173;-81
2022/06/07 01:19:04;;;;;;;8.32;4.43;;;19.10;99.90;;;;;;4880135;29;20056;-77
2022/06/07 01:21:49;;;;;;;9.05;3.72;;;19.20;99.90;;;;;;4880676;29;20056;-82
2022/06/07 01:24:36;;;;;;;10.85;3.70;;;19.30;99.90;;;;;;4880188;29;20513;-83
2022/06/07 01:27:21;;;;;;;7.50;3.60;;;19.20;99.90;;;;;;4880562;29;20421;-79
2022/06/07 01:30:11;;;;;;;10.18;3.55;;;19.10;99.90;;;;;;4866442;29;20064;-79
2022/06/07 01:32:56;;;;;;;8.10;3.67;;;19.10;99.90;;;;;;4860397;29;20506;-79
2022/06/07 01:35:45;;;;;;;12.40;3.60;;;19.10;99.90;;;;;;4861663;29;20068;-79
2022/06/07 01:38:36;;;;;;;10.70;3.53;;;19.00;99.90;;;;;;4861750;29;20090;-81
2022/06/07 01:44:35;;;;;;;9.43;3.78;;;18.90;99.90;;;;;;4861364;29;20068;-80
2022/06/07 01:47:28;;;;;;;8.20;4.25;;;18.90;99.90;;;;;;4860126;29;20056;-79
2022/06/07 01:50:17;;;;;;;11.27;3.75;;;19.00;99.90;;;;;;4860722;29;20566;-81
2022/06/07 01:53:04;;;;;;;9.88;3.25;;;19.10;99.90;;;;;;4860076;29;20084;-80
2022/06/07 01:55:50;;;;;;;7.60;3.78;;;18.90;99.90;;;;;;4861260;29;20124;-81
2022/06/07 01:58:35;;;;;;;7.10;3.50;;;18.90;99.90;;;;;;4860996;29;20056;-79
2022/06/07 02:01:21;;;;;;;17.63;5.55;;;18.60;99.90;;;;;;4861319;29;20178;-80
2022/06/07 02:04:08;;;;;;;10.63;4.00;;;18.80;99.90;;;;;;4860816;29;20607;-80
2022/06/07 02:06:54;;;;;;;10.65;3.58;;;18.90;99.90;;;;;;4861016;29;20056;-77
2022/06/07 02:09:40;;;;;;;6.93;3.22;;;18.80;99.90;;;;;;4860931;29;20057;-81
2022/06/07 02:12:26;;;;;;;10.27;3.65;;;18.70;99.90;;;;;;4861188;29;20158;-80
2022/06/07 02:15:12;;;;;;;12.98;4.18;;;18.70;99.90;;;;;;4860771;29;20525;-81
2022/06/07 02:17:58;;;;;;;9.45;3.53;;;18.70;99.90;;;;;;4858742;29;20529;-79
2022/06/07 02:20:44;;;;;;;11.98;4.45;;;18.90;99.90;;;;;;4861191;29;20060;-81
2022/06/07 02:23:31;;;;;;;9.15;3.60;;;18.90;99.90;;;;;;4860564;29;20423;-81
2022/06/07 02:26:35;;;;;;;8.88;3.30;;;18.90;99.90;;;;;;4861014;29;20064;-82
2022/06/07 02:29:32;;;;;;;7.97;3.63;;;19.00;99.90;;;;;;4866495;29;20063;-82
2022/06/07 02:32:20;;;;;;;13.10;4.45;;;18.80;99.90;;;;;;4878415;29;20130;-82
2022/06/07 02:35:06;;;;;;;9.68;3.88;;;18.70;99.90;;;;;;4864379;29;20057;-82
2022/06/07 02:37:53;;;;;;;9.80;4.05;;;18.80;99.90;;;;;;4860593;29;20412;-81
2022/06/07 02:40:39;;;;;;;12.90;4.05;;;18.90;99.90;;;;;;4859248;29;20416;-80
2022/06/07 02:43:24;;;;;;;11.57;3.83;;;18.70;99.90;;;;;;4860545;29;20069;-80
2022/06/07 02:46:10;;;;;;;12.73;3.78;;;18.60;99.90;;;;;;4860975;29;20529;-82
2022/06/07 02:48:56;;;;;;;6.65;3.45;;;18.70;99.90;;;;;;4860797;29;20049;-79
2022/06/07 02:51:42;;;;;;;8.82;3.75;;;18.70;99.90;;;;;;4863216;29;20080;-81
2022/06/07 02:54:28;;;;;;;7.55;3.40;;;18.80;99.90;;;;;;4859517;29;20104;-81
2022/06/07 02:57:15;;;;;;;17.65;5.22;;;18.70;99.90;;;;;;4860984;29;20048;-80
2022/06/07 03:00:01;;;;;;;11.65;3.90;;;18.70;99.90;;;;;;4860227;29;20145;-80
2022/06/07 03:02:48;;;;;;;13.60;3.80;;;18.80;99.90;;;;;;4859792;29;20106;-79
2022/06/07 03:05:34;;;;;;;10.55;4.25;;;18.70;99.90;;;;;;4859045;29;20194;-81
2022/06/07 03:08:21;;;;;;;7.85;4.40;;;18.80;99.90;;;;;;4860076;29;20134;-83
2022/06/07 03:11:07;;;;;;;10.57;3.83;;;18.70;99.90;;;;;;4859899;29;20213;-79
2022/06/07 03:13:53;;;;;;;10.40;4.30;;;18.70;99.90;;;;;;4859720;29;20052;-81
2022/06/07 03:16:39;;;;;;;10.25;4.32;;;18.80;99.90;;;;;;4859188;29;20056;-81
2022/06/07 03:19:28;;;;;;;7.72;4.28;;;18.70;99.90;;;;;;4858658;29;20076;-80
2022/06/07 03:22:14;;;;;;;9.02;4.78;;;18.80;99.90;;;;;;4858862;29;20076;-79
2022/06/07 03:25:05;;;;;;;9.48;4.47;;;18.80;99.90;;;;;;4858764;29;20056;-81
2022/06/07 03:27:51;;;;;;;14.75;5.25;;;18.70;99.90;;;;;;4858500;29;20455;-80
2022/06/07 03:30:39;;;;;;;10.73;5.13;;;18.70;99.90;;;;;;4873656;29;20204;-79
2022/06/07 03:33:25;;;;;;;13.38;4.85;;;18.80;99.90;;;;;;4877815;29;20052;-81
2022/06/07 03:36:33;;;;;;;11.13;4.82;;;18.90;99.90;;;;;;4878164;29;20520;-81
2022/06/07 03:39:19;;;;;;;12.77;4.43;;;18.90;99.90;;;;;;4878010;29;20056;-79
2022/06/07 03:42:05;;;;;;;15.02;4.60;;;18.90;99.90;;;;;;4878115;29;20063;-79
2022/06/07 03:44:51;;;;;;;14.73;4.93;;;18.90;99.90;;;;;;4877685;29;20048;-80
2022/06/07 03:47:37;;;;;;;9.32;4.78;;;18.80;99.90;;;;;;4877851;29;20150;-80
2022/06/07 03:50:23;;;;;;;11.73;4.55;;;18.70;99.90;;;;;;4878225;29;20414;-81
2022/06/07 03:53:09;;;;;;;9.55;4.15;;;18.50;99.90;;;;;;4877560;29;20064;-81
2022/06/07 03:55:55;;;;;;;17.10;5.22;;;18.50;99.90;;;;;;4878223;29;20056;-80
2022/06/07 03:58:41;;;;;;;8.05;4.40;;;18.40;99.90;;;;;;4877902;29;20052;-81
2022/06/07 04:01:28;;;;;;;9.02;4.65;;;18.40;99.90;;;;;;4876559;29;20129;-80
2022/06/07 04:04:14;;;;;;;11.50;4.57;;;18.50;99.90;;;;;;4876804;29;20059;-80
2022/06/07 04:10:05;;;;;;;9.98;5.13;;;19.10;99.90;;;;;;4877423;29;20220;-80
2022/06/07 04:12:51;;;;;;;14.30;4.82;;;19.00;99.90;;;;;;4877593;29;20153;-81
2022/06/07 04:15:36;;;;;;;10.15;4.45;;;19.20;99.90;;;;;;4876847;29;20071;-82
2022/06/07 04:18:23;;;;;;;10.18;5.20;;;19.30;99.90;;;;;;4877643;29;20578;-83
2022/06/07 04:21:09;;;;;;;10.02;4.40;;;19.40;99.90;;;;;;4877817;29;20060;-82
2022/06/07 04:23:55;;;;;;;9.95;4.80;;;19.60;99.90;;;;;;4876379;29;20541;-82
2022/06/07 04:26:42;;;;;;;9.30;4.65;;;19.60;99.90;;;;;;4877723;29;20145;-81
2022/06/07 04:29:28;;;;;;;9.15;5.00;;;19.40;99.90;;;;;;4874081;29;20045;-81
2022/06/07 04:32:16;;;;;;;10.88;4.53;;;19.40;99.90;;;;;;4861242;29;20052;-79
2022/06/07 04:35:02;;;;;;;8.57;4.97;;;19.20;99.90;;;;;;4876633;29;20525;-81
2022/06/07 04:37:49;;;;;;;10.57;4.72;;;19.30;99.90;;;;;;4876440;29;20413;-80
2022/06/07 04:40:37;;;;;;;27.17;15.40;;;19.30;99.90;;;;;;4877487;29;20160;-80
2022/06/07 04:43:23;;;;;;;32.33;19.67;;;19.30;99.90;;;;;;4880171;29;20045;-80
2022/06/07 04:46:15;;;;;;;41.88;29.17;;;19.30;99.90;;;;;;4880582;29;20126;-80
2022/06/07 04:49:01;;;;;;;11.88;6.07;;;19.30;99.90;;;;;;4880880;29;20405;-81
2022/06/07 04:51:48;;;;;;;9.88;5.00;;;19.30;99.90;;;;;;4880665;29;20126;-81
2022/06/07 04:54:34;;;;;;;11.05;4.93;;;19.20;99.90;;;;;;4880892;29;20121;-79
2022/06/07 04:57:20;;;;;;;11.52;4.78;;;19.10;99.90;;;;;;4880696;29;20136;-79
2022/06/07 05:00:08;;;;;;;9.02;4.40;;;19.20;99.90;;;;;;4881034;29;20068;-78
2022/06/07 05:02:55;;;;;;;10.82;4.47;;;19.20;99.90;;;;;;4880342;29;20060;-80
2022/06/07 05:05:41;;;;;;;15.18;5.45;;;19.30;99.90;;;;;;4881091;29;20052;-80
2022/06/07 05:08:26;;;;;;;12.65;4.32;;;19.40;99.90;;;;;;4879765;29;20140;-81
2022/06/07 05:11:13;;;;;;;12.68;5.03;;;19.60;99.90;;;;;;4881147;29;20096;-78
2022/06/07 05:14:02;;;;;;;11.85;4.20;;;19.60;99.90;;;;;;4880094;29;20093;-79
2022/06/07 05:16:51;;;;;;;11.43;5.22;;;19.60;99.90;;;;;;4863948;29;20060;-77
2022/06/07 05:19:38;;;;;;;9.15;4.57;;;19.60;99.90;;;;;;4861785;29;20179;-81
2022/06/07 05:22:24;;;;;;;12.63;5.00;;;19.80;99.90;;;;;;4860775;29;20141;-83
2022/06/07 05:25:10;;;;;;;11.98;4.70;;;19.90;99.90;;;;;;4861770;29;20060;-82
2022/06/07 05:27:57;;;;;;;9.50;4.80;;;20.00;99.90;;;;;;4872599;29;20104;-82
2022/06/07 05:30:43;;;;;;;9.43;5.75;;;20.10;99.90;;;;;;4868318;29;20056;-79
2022/06/07 05:33:29;;;;;;;13.57;5.22;;;20.30;99.90;;;;;;4863269;29;20068;-79
2022/06/07 05:36:15;;;;;;;12.52;5.07;;;20.20;99.90;;;;;;4861555;29;20414;-79
2022/06/07 05:39:04;;;;;;;11.05;5.20;;;20.40;99.90;;;;;;4861089;29;20525;-79
2022/06/07 05:41:51;;;;;;;9.20;5.00;;;20.40;99.90;;;;;;4860895;29;20533;-78
2022/06/07 05:44:38;;;;;;;28.83;13.80;;;20.30;99.90;;;;;;4876145;29;20056;-79
2022/06/07 05:47:24;;;;;;;62.35;37.42;;;20.30;99.90;;;;;;4877875;29;20060;-83
2022/06/07 05:50:10;;;;;;;15.48;9.23;;;20.40;99.90;;;;;;4861075;29;20140;-78
2022/06/07 05:52:58;;;;;;;17.85;6.72;;;20.40;99.90;;;;;;4861207;29;20060;-79
2022/06/07 05:55:44;;;;;;;11.68;5.90;;;20.50;99.90;;;;;;4871319;29;20521;-78
2022/06/07 05:58:30;;;;;;;16.50;6.35;;;20.70;99.90;;;;;;4879616;29;20556;-80
2022/06/07 06:01:20;;;;;;;12.77;6.38;;;20.60;99.90;;;;;;4877748;29;20116;-81
2022/06/07 06:04:07;;;;;;;14.65;7.32;;;20.60;99.90;;;;;;4867170;29;20052;-83
2022/06/07 06:06:57;;;;;;;11.65;7.13;;;20.70;99.90;;;;;;4869383;29;20442;-81
2022/06/07 06:12:47;;;;;;;14.10;6.55;;;20.50;99.90;;;;;;4869741;29;19935;-82
2022/06/07 06:15:33;;;;;;;13.50;6.82;;;20.60;99.90;;;;;;4871186;29;20513;-81
2022/06/07 06:18:21;;;;;;;12.77;6.13;;;20.80;99.90;;;;;;4868120;29;20414;-80
2022/06/07 06:21:08;;;;;;;11.13;5.70;;;20.90;99.90;;;;;;4869680;29;20060;-81
2022/06/07 06:23:57;;;;;;;11.95;6.22;;;21.00;99.90;;;;;;4869132;29;20542;-80
2022/06/07 06:26:43;;;;;;;13.38;5.88;;;21.10;99.90;;;;;;4870166;29;20422;-79
2022/06/07 06:29:29;;;;;;;11.82;5.88;;;21.20;99.90;;;;;;4867364;29;20410;-82
2022/06/07 06:32:15;;;;;;;12.50;6.55;;;21.20;99.90;;;;;;4868076;29;20528;-80
2022/06/07 06:35:01;;;;;;;12.48;5.97;;;21.10;99.90;;;;;;4870677;29;20060;-80
2022/06/07 06:37:47;;;;;;;21.35;10.00;;;21.10;99.90;;;;;;4869750;29;20052;-80
2022/06/07 06:40:33;;;;;;;36.28;23.08;;;21.00;99.90;;;;;;4866900;29;20157;-82
2022/06/07 06:43:20;;;;;;;46.95;27.50;;;21.10;99.90;;;;;;4867394;29;20052;-82
2022/06/07 06:46:20;;;;;;;17.65;10.52;;;21.10;99.90;;;;;;4869792;29;20560;-79
2022/06/07 06:49:08;;;;;;;16.33;7.50;;;21.20;99.90;;;;;;4868302;29;20056;-80
2022/06/07 06:51:56;;;;;;;13.75;7.43;;;21.10;99.90;;;;;;4862959;29;20068;-81
2022/06/07 06:54:43;;;;;;;12.98;8.27;;;21.40;99.90;;;;;;4860442;29;20049;-82
2022/06/07 06:57:29;;;;;;;17.13;8.00;;;21.50;99.90;;;;;;4860444;29;20060;-77
2022/06/07 07:00:16;;;;;;;16.27;7.55;;;21.70;99.90;;;;;;4860111;29;20056;-80
2022/06/07 07:03:02;;;;;;;13.98;7.65;;;21.80;99.90;;;;;;4858577;29;20064;-82
2022/06/07 07:05:56;;;;;;;13.10;7.25;;;21.60;99.90;;;;;;4866495;29;20741;-79
2022/06/07 07:08:43;;;;;;;14.30;8.00;;;21.50;99.90;;;;;;4874182;29;20064;-81
2022/06/07 07:11:32;;;;;;;13.90;7.30;;;21.60;99.90;;;;;;4878267;29;20059;-80
2022/06/07 07:14:18;;;;;;;15.52;7.30;;;21.60;99.90;;;;;;4877232;29;20055;-79
2022/06/07 07:17:05;;;;;;;12.20;7.00;;;21.70;99.90;;;;;;4877542;29;20044;-79
2022/06/07 07:19:50;;;;;;;12.15;6.28;;;21.60;99.90;;;;;;4878816;29;20064;-80
2022/06/07 07:22:36;;;;;;;12.73;6.70;;;21.80;99.90;;;;;;4861477;29;20052;-80
2022/06/07 07:25:23;;;;;;;13.88;6.35;;;21.90;99.90;;;;;;4858185;29;20118;-82
2022/06/07 07:28:09;;;;;;;17.33;6.32;;;22.10;99.90;;;;;;4870718;29;20056;-78
2022/06/07 07:31:00;;;;;;;13.48;6.45;;;22.10;99.90;;;;;;4859960;29;20185;-79
2022/06/07 07:33:51;;;;;;;12.00;6.13;;;22.20;99.90;;;;;;4859600;29;20102;-80
2022/06/07 07:36:43;;;;;;;16.75;6.53;;;22.20;99.90;;;;;;4859645;29;20069;-79
2022/06/07 07:39:29;;;;;;;14.80;6.13;;;22.10;99.90;;;;;;4860809;29;20174;-79
2022/06/07 07:42:15;;;;;;;13.98;7.70;;;22.10;99.90;;;;;;4859572;29;20068;-83
2022/06/07 07:45:02;;;;;;;15.65;7.32;;;22.00;99.90;;;;;;4859908;29;20064;-81
2022/06/07 07:47:48;;;;;;;19.48;6.65;;;21.70;99.90;;;;;;4859103;29;20048;-85
2022/06/07 07:50:37;;;;;;;11.35;6.72;;;21.90;99.90;;;;;;4858838;29;20052;-83
2022/06/07 07:53:23;;;;;;;11.15;5.82;;;22.30;99.90;;;;;;4859078;29;20052;-82
2022/06/07 07:56:08;;;;;;;13.65;7.75;;;22.50;99.90;;;;;;4858589;29;20188;-81
2022/06/07 07:58:58;;;;;;;13.95;6.00;;;22.40;99.90;;;;;;4858537;29;20052;-79
2022/06/07 08:05:27;;;;;;;11.80;6.43;;;22.20;99.90;;;;;;4858857;29;20060;-93
2022/06/07 08:08:17;;;;;;;12.23;5.78;;;22.30;99.90;;;;;;4892103;23;20059;-87
2022/06/07 08:11:44;;;;;;;21.55;7.35;;;22.30;99.90;;;;;;4890228;29;20116;-83
2022/06/07 08:14:39;;;;;;;11.60;5.70;;;22.30;99.90;;;;;;4881110;29;20055;-91
2022/06/07 08:17:29;;;;;;;11.00;5.88;;;22.30;99.90;;;;;;4886202;29;20589;-89
2022/06/07 08:20:36;;;;;;;;;;;22.20;99.90;;;;;;4895490;29;20064;-89
2022/06/07 08:23:48;;;;;;;10.35;4.95;;;22.00;99.90;;;;;;4882497;29;19980;-87
2022/06/07 08:27:01;;;;;;;11.68;5.95;;;22.30;99.90;;;;;;4859967;29;20060;-88
2022/06/07 08:30:13;;;;;;;12.43;6.07;;;22.20;99.90;;;;;;4881601;29;20072;-88
2022/06/07 08:40:43;;;;;;;8.73;5.65;;;22.40;99.90;;;;;;4882179;29;20079;-87
2022/06/07 08:44:26;;;;;;;16.98;6.75;;;22.30;99.90;;;;;;4863116;29;20513;-82
2022/06/07 08:52:11;;;;;;;11.93;5.30;;;22.80;99.90;;;;;;4837804;29;20053;-83
2022/06/07 08:55:44;;;;;;;9.13;5.68;;;22.90;99.90;;;;;;4846918;29;20185;-84
2022/06/07 08:58:37;;;;;;;14.60;4.72;;;22.80;99.90;;;;;;4880883;29;20052;-84
2022/06/07 09:01:34;;;;;;;8.98;4.80;;;23.00;99.90;;;;;;4874209;29;20045;-86
2022/06/07 09:04:29;;;;;;;11.32;5.68;;;22.80;99.90;;;;;;4872965;29;20055;-83
2022/06/07 09:07:29;;;;;;;9.70;4.20;;;22.70;99.90;;;;;;4880767;29;20056;-83
2022/06/07 09:13:54;;;;;;;8.10;4.32;;;22.80;99.90;;;;;;4880570;29;20221;-83
2022/06/07 09:17:09;;;;;;;11.00;4.80;;;23.10;99.90;;;;;;4880005;29;20043;-85
2022/06/07 09:19:55;;;;;;;8.88;4.90;;;23.10;99.90;;;;;;4881036;29;20049;-83
2022/06/07 09:23:04;;;;;;;9.75;5.43;;;23.30;99.90;;;;;;4879340;29;20158;-83
2022/06/07 09:25:56;;;;;;;12.07;4.72;;;23.20;99.90;;;;;;4859510;29;20402;-83
2022/06/07 09:28:47;;;;;;;8.57;4.93;;;23.30;99.90;;;;;;4860310;29;20056;-83
2022/06/07 09:31:39;;;;;;;9.30;4.63;;;23.20;99.90;;;;;;4855735;29;20053;-82
2022/06/07 09:34:28;;;;;;;10.55;8.18;;;23.30;99.90;;;;;;4861137;29;20080;-83
2022/06/07 09:40:33;;;;;;;8.98;4.88;;;23.80;99.90;;;;;;4866369;29;20138;-85
2022/06/07 09:43:38;;;;;;;10.13;4.65;;;23.70;99.90;;;;;;4880978;29;20181;-87
2022/06/07 09:46:27;;;;;;;7.65;4.20;;;23.70;99.90;;;;;;4880482;29;20134;-87
2022/06/07 09:49:38;;;;;;;7.32;4.20;;;23.60;99.90;;;;;;4882046;29;20056;-89
2022/06/07 09:52:41;;;;;;;11.90;4.95;;;23.90;99.90;;;;;;4880218;29;20056;-79
2022/06/07 09:56:07;;;;;;;10.65;4.57;;;24.20;99.90;;;;;;4880741;29;20527;-90
2022/06/07 09:59:05;;;;;;;9.70;5.03;;;24.20;99.90;;;;;;4867486;29;20698;-88
2022/06/07 10:02:01;;;;;;;6.97;4.15;;;24.50;99.90;;;;;;4876576;29;20060;-83
2022/06/07 10:04:58;;;;;;;6.30;3.90;;;24.60;99.90;;;;;;4879156;29;20470;-89
2022/06/07 10:07:47;;;;;;;8.48;4.28;;;24.50;99.90;;;;;;4866434;29;20508;-89
2022/06/07 10:10:38;;;;;;;9.68;5.00;;;24.60;99.90;;;;;;4868581;29;20139;-89
2022/06/07 10:14:18;;;;;;;10.43;4.65;;;24.40;99.90;;;;;;4886769;29;20089;-88
2022/06/07 10:17:42;;;;;;;10.23;4.28;;;24.60;99.90;;;;;;4878554;29;20084;-79
2022/06/07 10:21:21;;;;;;;12.15;4.97;;;25.00;99.90;;;;;;4879140;29;20132;-91
2022/06/07 10:24:13;;;;;;;7.60;4.60;;;24.70;99.90;;;;;;4870030;29;20051;-88
2022/06/07 10:27:02;;;;;;;7.82;4.30;;;24.40;99.90;;;;;;4879054;29;20641;-85
2022/06/07 10:30:27;;;;;;;9.18;4.45;;;24.60;99.90;;;;;;4879167;29;20105;-86
2022/06/07 10:33:22;;;;;;;10.32;5.07;;;25.00;99.90;;;;;;4879143;29;20393;-81
2022/06/07 10:36:27;;;;;;;12.00;4.32;;;25.30;99.90;;;;;;4878463;29;20408;-78
2022/06/07 10:39:48;;;;;;;11.95;5.05;;;25.30;99.90;;;;;;4877858;29;20527;-84
2022/06/07 10:42:40;;;;;;;9.73;5.40;;;25.20;99.90;;;;;;4860971;29;20422;-84
2022/06/07 10:45:38;;;;;;;7.75;4.45;;;25.30;99.90;;;;;;4877259;29;20064;-80
2022/06/07 10:48:40;;;;;;;11.32;4.57;;;25.60;99.90;;;;;;4877591;29;20051;-82
2022/06/07 10:55:09;;;;;;;12.48;4.47;;;25.90;99.90;;;;;;4875855;29;20609;-78
2022/06/07 10:58:26;;;;;;;8.48;4.28;;;25.90;99.90;;;;;;4877566;29;20055;-78
2022/06/07 11:01:38;;;;;;;12.35;4.68;;;26.10;99.90;;;;;;4876202;29;20044;-78
2022/06/07 11:11:08;;;;;;;10.00;3.97;;;26.00;99.80;;;;;;4877637;29;20753;-78
2022/06/07 11:14:38;;;;;;;7.47;4.05;;;26.10;99.20;;;;;;4875887;29;20137;-79
2022/06/07 11:17:39;;;;;;;7.85;4.50;;;26.20;99.90;;;;;;4851873;29;20167;-78
2022/06/07 11:20:29;;;;;;;10.00;4.25;;;26.10;99.10;;;;;;4859641;29;20157;-79
2022/06/07 11:23:24;;;;;;;11.35;4.63;;;26.00;99.30;;;;;;4859626;29;20137;-78
2022/06/07 11:26:14;;;;;;;9.25;4.75;;;26.10;99.90;;;;;;4858479;29;20077;-79
2022/06/07 11:29:08;;;;;;;7.25;4.45;;;26.10;98.30;;;;;;4861069;29;20417;-80
2022/06/07 11:31:55;;;;;;;8.40;4.70;;;26.40;98.50;;;;;;4859737;29;20418;-82
2022/06/07 11:34:41;;;;;;;9.73;5.38;;;26.50;97.90;;;;;;4859582;29;20109;-80
2022/06/07 11:37:34;;;;;;;7.35;4.50;;;26.90;98.70;;;;;;4858672;29;20157;-79
2022/06/07 11:40:29;;;;;;;6.72;4.13;;;26.60;97.30;;;;;;4872536;29;20194;-79
2022/06/07 11:43:51;;;;;;;7.45;4.50;;;26.50;97.70;;;;;;4883159;29;20169;-79
2022/06/07 11:46:46;;;;;;;8.40;4.10;;;26.60;97.40;;;;;;4874751;29;20055;-79
2022/06/07 11:49:38;;;;;;;8.05;4.78;;;26.90;97.70;;;;;;4874106;29;20116;-78
2022/06/07 11:52:33;;;;;;;9.45;4.97;;;26.90;95.90;;;;;;4876405;29;20060;-80
2022/06/07 11:55:22;;;;;;;8.48;5.15;;;26.90;95.90;;;;;;4876361;29;20055;-82
2022/06/07 11:58:58;;;;;;;7.05;4.20;;;27.30;96.10;;;;;;4878659;29;20524;-80
2022/06/07 12:02:02;;;;;;;11.43;4.60;;;27.40;94.80;;;;;;4877160;29;20135;-79
2022/06/07 12:04:48;;;;;;;7.32;4.28;;;27.50;94.50;;;;;;4875818;29;20184;-79
2022/06/07 12:07:48;;;;;;;8.30;4.30;;;27.50;93.30;;;;;;4877474;29;20072;-79
2022/06/07 12:10:36;;;;;;;;;;;27.70;92.70;;;;;;4878067;29;20056;-79
2022/06/07 12:16:34;;;;;;;7.28;4.10;;;28.30;92.80;;;;;;4875210;29;20112;-78
2022/06/07 12:19:25;;;;;;;8.23;4.03;;;27.90;92.10;;;;;;4876221;29;20060;-78
2022/06/07 12:22:18;;;;;;;7.90;3.97;;;27.90;91.70;;;;;;4876720;29;20409;-78
2022/06/07 12:25:21;;;;;;;7.70;4.18;;;28.00;91.40;;;;;;4876305;29;20052;-78
2022/06/07 12:28:22;;;;;;;10.70;4.05;;;27.70;88.80;;;;;;4875854;29;20048;-78
2022/06/07 12:31:14;;;;;;;;;;;28.00;86.00;;;;;;4877783;29;20144;-78
2022/06/07 12:34:12;;;;;;;8.05;3.72;;;28.50;85.40;;;;;;4876386;29;20004;-78
2022/06/07 12:37:10;;;;;;;7.85;4.28;;;28.20;85.50;;;;;;4871873;29;20117;-78
2022/06/07 12:39:57;;;;;;;11.57;5.35;;;28.30;87.80;;;;;;4875300;29;20125;-77
2022/06/07 12:42:49;;;;;;;5.95;3.75;;;28.10;88.80;;;;;;4874557;29;20048;-77
2022/06/07 12:45:37;;;;;;;8.40;5.25;;;28.00;88.20;;;;;;4875663;29;20096;-79
2022/06/07 12:48:23;;;;;;;10.13;4.75;;;28.10;88.80;;;;;;4876982;29;20528;-79
2022/06/07 12:51:36;;;;;;;8.93;4.70;;;28.40;87.90;;;;;;4876776;29;20060;-77
2022/06/07 12:54:22;;;;;;;9.45;5.28;;;28.90;88.60;;;;;;4878154;29;20063;-79
2022/06/07 12:57:26;;;;;;;14.15;5.38;;;29.10;88.10;;;;;;4877851;29;20523;-79
2022/06/07 13:00:20;;;;;;;7.90;3.92;;;29.30;87.20;;;;;;4858237;29;20051;-78
2022/06/07 13:03:34;;;;;;;10.32;5.15;;;29.40;87.90;;;;;;4861097;29;20052;-79
2022/06/07 13:06:21;;;;;;;13.05;5.47;;;29.40;86.40;;;;;;4862010;29;20102;-85
2022/06/07 13:09:20;;;;;;;9.35;4.32;;;29.20;86.40;;;;;;4860846;29;20137;-81
2022/06/07 13:12:07;;;;;;;11.90;4.63;;;29.20;87.00;;;;;;4859855;29;20146;-83
2022/06/07 13:15:35;;;;;;;24.15;8.70;;;29.40;84.70;;;;;;4859385;29;20537;-84
2022/06/07 13:18:33;;;;;;;9.32;4.38;;;29.10;87.80;;;;;;4871135;29;20059;-86
2022/06/07 13:21:24;;;;;;;16.08;6.13;;;29.30;86.00;;;;;;4876674;29;20065;-82
2022/06/07 13:24:42;;;;;;;13.30;5.68;;;29.30;85.80;;;;;;4878208;29;20055;-91
2022/06/07 13:27:51;;;;;;;8.55;3.58;;;29.30;83.90;;;;;;4881718;29;20048;-81
2022/06/07 13:30:43;;;;;;;9.80;3.80;;;29.20;81.10;;;;;;4881904;29;20517;-89
2022/06/07 13:33:35;;;;;;;7.43;3.83;;;29.60;80.70;;;;;;4881931;29;20151;-88
2022/06/07 13:37:09;;;;;;;9.45;4.68;;;29.40;80.90;;;;;;4880932;29;20060;-86
2022/06/07 13:40:09;;;;;;;10.90;4.18;;;29.40;82.80;;;;;;4881217;29;20064;-85
2022/06/07 13:43:18;;;;;;;10.60;3.92;;;29.70;82.40;;;;;;4879948;29;20409;-85
2022/06/07 13:46:50;;;;;;;12.05;5.10;;;29.60;80.90;;;;;;4881592;29;20169;-87
2022/06/07 13:55:49;;;;;;;9.35;4.45;;;30.20;78.20;;;;;;4899560;29;20495;-84
2022/06/07 13:58:42;;;;;;;8.15;4.40;;;30.30;78.30;;;;;;4889318;29;20052;-84
2022/06/07 14:01:33;;;;;;;8.95;4.50;;;30.40;78.80;;;;;;4879095;29;20052;-81
2022/06/07 14:04:31;;;;;;;9.95;3.78;;;30.40;78.70;;;;;;4879674;29;20385;-79
2022/06/07 14:07:17;;;;;;;7.53;3.80;;;30.70;77.40;;;;;;4879860;29;20048;-84
2022/06/07 14:10:03;;;;;;;7.70;3.72;;;30.80;76.10;;;;;;4880229;29;20125;-81
2022/06/07 14:12:49;;;;;;;9.90;3.60;;;30.70;76.70;;;;;;4883394;29;20437;-82
2022/06/07 14:15:36;;;;;;;7.93;4.05;;;30.80;76.30;;;;;;4894829;29;20124;-81
2022/06/07 14:18:23;;;;;;;9.00;4.60;;;30.80;75.60;;;;;;4878677;29;20080;-82
2022/06/07 14:21:09;;;;;;;8.18;4.13;;;31.10;75.70;;;;;;4880720;29;20044;-81
2022/06/07 14:23:56;;;;;;;10.85;4.40;;;31.50;75.10;;;;;;4878988;29;20124;-79
2022/06/07 14:26:43;;;;;;;8.88;4.00;;;31.60;73.60;;;;;;4878798;29;20059;-79
2022/06/07 14:29:29;;;;;;;16.08;10.38;;;31.80;73.00;;;;;;4871639;29;20051;-81
2022/06/07 14:32:27;;;;;;;8.80;4.78;;;32.00;73.00;;;;;;4861643;29;20183;-85
2022/06/07 14:35:23;;;;;;;7.70;4.13;;;31.80;71.80;;;;;;4861470;29;20053;-81
2022/06/07 14:38:15;;;;;;;10.23;4.55;;;31.90;73.00;;;;;;4860007;29;20113;-81
2022/06/07 14:41:01;;;;;;;5.93;3.30;;;31.70;72.50;;;;;;4861274;29;20068;-82
2022/06/07 14:43:52;;;;;;;9.60;3.80;;;31.50;72.10;;;;;;4860130;29;20062;-77
2022/06/07 14:46:39;;;;;;;8.07;3.60;;;31.20;71.60;;;;;;4861095;29;20052;-82
2022/06/07 14:49:38;;;;;;;7.50;4.28;;;31.10;72.10;;;;;;4861100;29;20049;-81
2022/06/07 14:52:24;;;;;;;6.97;4.43;;;31.20;72.80;;;;;;4859969;29;20056;-78
2022/06/07 14:55:12;;;;;;;7.43;4.10;;;31.60;72.00;;;;;;4860468;29;20381;-82
2022/06/07 14:57:58;;;;;;;11.13;4.85;;;32.10;72.10;;;;;;4860302;29;20405;-79
2022/06/07 15:00:49;;;;;;;17.40;4.35;;;32.20;72.80;;;;;;4860033;29;20048;-84
2022/06/07 15:03:35;;;;;;;20.88;12.20;;;31.80;70.80;;;;;;4860119;29;20082;-82
2022/06/07 15:06:32;;;;;;;40.17;31.23;;;32.00;72.10;;;;;;4863155;29;20052;-81
2022/06/07 15:09:30;;;;;;;14.32;10.63;;;31.90;73.40;;;;;;4878412;29;20454;-86
2022/06/07 15:12:16;;;;;;;24.25;19.85;;;32.20;70.80;;;;;;4880280;29;20052;-88
2022/06/07 15:15:03;;;;;;;20.70;14.18;;;32.10;71.50;;;;;;4862015;29;20052;-87
2022/06/07 15:17:54;;;;;;;13.30;7.15;;;31.90;71.60;;;;;;4862315;29;20057;-91
2022/06/07 15:20:40;;;;;;;11.30;6.95;;;32.20;71.20;;;;;;4866159;29;20085;-90
2022/06/07 15:23:26;;;;;;;9.43;5.43;;;32.50;72.50;;;;;;4865001;29;20118;-82
2022/06/07 15:26:14;;;;;;;11.57;4.97;;;32.80;70.10;;;;;;4868159;29;20149;-89
2022/06/07 15:29:00;;;;;;;13.02;4.95;;;32.90;69.10;;;;;;4862162;29;20090;-90
2022/06/07 15:31:46;;;;;;;8.02;4.22;;;32.90;68.80;;;;;;4873874;29;20532;-84
2022/06/07 15:34:32;;;;;;;8.25;4.20;;;33.00;67.50;;;;;;4877649;29;20064;-79
2022/06/07 15:37:18;;;;;;;12.85;5.03;;;32.90;66.80;;;;;;4877604;29;20051;-81
2022/06/07 15:40:07;;;;;;;63.97;45.85;;;32.90;67.90;;;;;;4878926;29;20068;-81
2022/06/07 15:42:56;;;;;;;31.67;23.58;;;33.30;66.20;;;;;;4874012;29;20146;-86